sensor_id;sensor_type;location;lat;lon;timestamp;pressure;altitude;pressure_sealevel;temperature;humidity
68320;BME280;55168;51.120;17.024;2022-09-09T00:00:00;99750;;;14.6;100.0
68320;BME280;55168;51.120;17.024;2022-09-09T00:02:03;99750;;;14.5;100.0
68320;BME280;55168;51.120;17.024;2022-09-09T00:03:02;99750;;;14.5;100.0
68320;BME280;55168;51.120;17.024;2022-09-09T00:04:03;99750;;;14.5;100.0
68320;BME280;55168;51.120;17.024;2022-09-09T00:05:04;99750;;;14.6;100.0
68320;BME280;55168;51.120;17.024;2022-09-09T00:07:18;99750;;;14.6;100.0
68320;BME280;55168;51.120;17.024;2022-09-09T00:08:00;99750;;;14.6;100.0
68320;BME280;55168;51.120;17.024;2022-09-09T00:11:00;99750;;;14.6;100.0
68320;BME280;55168;51.120;17.024;2022-09-09T00:14:00;99760;;;14.6;100.0
68320;BME280;55168;51.120;17.024;2022-09-09T00:15:02;99750;;;14.5;100.0
68320;BME280;55168;51.120;17.024;2022-09-09T00:16:02;99750;;;14.5;100.0
68320;BME280;55168;51.120;17.024;2022-09-09T00:17:01;99750;;;14.5;100.0
68320;BME280;55168;51.120;17.024;2022-09-09T00:20:01;99750;;;14.5;100.0
68320;BME280;55168;51.120;17.024;2022-09-09T00:22:13;99750;;;14.6;100.0
68320;BME280;55168;51.120;17.024;2022-09-09T00:23:05;99750;;;14.6;100.0
68320;BME280;55168;51.120;17.024;2022-09-09T00:24:00;99750;;;14.6;100.0
68320;BME280;55168;51.120;17.024;2022-09-09T00:25:08;99750;;;14.6;100.0
68320;BME280;55168;51.120;17.024;2022-09-09T00:27:01;99750;;;14.6;100.0
68320;BME280;55168;51.120;17.024;2022-09-09T00:28:00;99760;;;14.6;100.0
68320;BME280;55168;51.120;17.024;2022-09-09T00:30:13;99760;;;14.6;100.0
68320;BME280;55168;51.120;17.024;2022-09-09T00:31:04;99760;;;14.6;100.0
68320;BME280;55168;51.120;17.024;2022-09-09T00:32:00;99760;;;14.6;100.0
68320;BME280;55168;51.120;17.024;2022-09-09T00:33:00;99760;;;14.6;100.0
68320;BME280;55168;51.120;17.024;2022-09-09T00:34:03;99760;;;14.6;100.0
68320;BME280;55168;51.120;17.024;2022-09-09T00:35:02;99750;;;14.5;100.0
68320;BME280;55168;51.120;17.024;2022-09-09T00:36:00;99760;;;14.5;100.0
68320;BME280;55168;51.120;17.024;2022-09-09T00:37:00;99750;;;14.5;100.0
68320;BME280;55168;51.120;17.024;2022-09-09T00:38:02;99750;;;14.5;100.0
68320;BME280;55168;51.120;17.024;2022-09-09T00:39:01;99750;;;14.4;100.0
68320;BME280;55168;51.120;17.024;2022-09-09T00:40:00;99750;;;14.4;100.0
68320;BME280;55168;51.120;17.024;2022-09-09T00:41:01;99750;;;14.4;100.0
68320;BME280;55168;51.120;17.024;2022-09-09T00:44:11;99750;;;14.4;100.0
68320;BME280;55168;51.120;17.024;2022-09-09T00:45:02;99750;;;14.4;100.0
68320;BME280;55168;51.120;17.024;2022-09-09T00:46:05;99750;;;14.4;100.0
68320;BME280;55168;51.120;17.024;2022-09-09T00:48:00;99750;;;14.3;100.0
68320;BME280;55168;51.120;17.024;2022-09-09T00:49:04;99750;;;14.3;100.0
68320;BME280;55168;51.120;17.024;2022-09-09T00:51:01;99760;;;14.3;100.0
68320;BME280;55168;51.120;17.024;2022-09-09T00:55:05;99760;;;14.3;100.0
68320;BME280;55168;51.120;17.024;2022-09-09T00:57:03;99760;;;14.3;100.0
68320;BME280;55168;51.120;17.024;2022-09-09T00:58:00;99760;;;14.2;100.0
68320;BME280;55168;51.120;17.024;2022-09-09T01:01:03;99750;;;14.2;100.0
68320;BME280;55168;51.120;17.024;2022-09-09T01:02:00;99750;;;14.2;100.0
68320;BME280;55168;51.120;17.024;2022-09-09T01:03:19;99750;;;14.2;100.0
68320;BME280;55168;51.120;17.024;2022-09-09T01:04:00;99760;;;14.2;100.0
68320;BME280;55168;51.120;17.024;2022-09-09T01:05:03;99760;;;14.2;100.0
68320;BME280;55168;51.120;17.024;2022-09-09T01:06:02;99760;;;14.1;100.0
68320;BME280;55168;51.120;17.024;2022-09-09T01:07:03;99760;;;14.1;100.0
68320;BME280;55168;51.120;17.024;2022-09-09T01:08:00;99760;;;14.1;100.0
68320;BME280;55168;51.120;17.024;2022-09-09T01:09:17;99760;;;14.1;100.0
68320;BME280;55168;51.120;17.024;2022-09-09T01:10:00;99760;;;14.1;100.0
68320;BME280;55168;51.120;17.024;2022-09-09T01:11:00;99760;;;14.1;100.0
68320;BME280;55168;51.120;17.024;2022-09-09T01:12:16;99760;;;14.1;100.0
68320;BME280;55168;51.120;17.024;2022-09-09T01:13:00;99760;;;14.1;100.0
68320;BME280;55168;51.120;17.024;2022-09-09T01:14:10;99760;;;14.1;100.0
68320;BME280;55168;51.120;17.024;2022-09-09T01:15:03;99760;;;14.1;100.0
68320;BME280;55168;51.120;17.024;2022-09-09T01:16:00;99760;;;14.1;100.0
68320;BME280;55168;51.120;17.024;2022-09-09T01:17:03;99760;;;14.1;100.0
68320;BME280;55168;51.120;17.024;2022-09-09T01:18:02;99760;;;14.1;100.0
68320;BME280;55168;51.120;17.024;2022-09-09T01:19:00;99760;;;14.1;100.0
68320;BME280;55168;51.120;17.024;2022-09-09T01:22:01;99760;;;14.1;100.0
68320;BME280;55168;51.120;17.024;2022-09-09T01:23:04;99760;;;14.1;100.0
68320;BME280;55168;51.120;17.024;2022-09-09T01:24:04;99760;;;14.1;100.0
68320;BME280;55168;51.120;17.024;2022-09-09T01:25:09;99760;;;14.1;100.0
68320;BME280;55168;51.120;17.024;2022-09-09T01:26:17;99760;;;14.0;100.0
68320;BME280;55168;51.120;17.024;2022-09-09T01:27:01;99760;;;14.0;100.0
68320;BME280;55168;51.120;17.024;2022-09-09T01:28:00;99770;;;14.0;100.0
68320;BME280;55168;51.120;17.024;2022-09-09T01:29:00;99770;;;14.0;100.0
68320;BME280;55168;51.120;17.024;2022-09-09T01:30:00;99770;;;13.9;100.0
68320;BME280;55168;51.120;17.024;2022-09-09T01:31:00;99770;;;13.9;100.0
68320;BME280;55168;51.120;17.024;2022-09-09T01:32:00;99770;;;13.9;100.0
68320;BME280;55168;51.120;17.024;2022-09-09T01:33:00;99770;;;13.9;100.0
68320;BME280;55168;51.120;17.024;2022-09-09T01:34:00;99770;;;13.9;100.0
68320;BME280;55168;51.120;17.024;2022-09-09T01:35:00;99770;;;13.9;100.0
68320;BME280;55168;51.120;17.024;2022-09-09T01:38:00;99770;;;13.8;100.0
68320;BME280;55168;51.120;17.024;2022-09-09T01:39:00;99770;;;13.8;100.0
68320;BME280;55168;51.120;17.024;2022-09-09T01:40:00;99780;;;13.8;100.0
68320;BME280;55168;51.120;17.024;2022-09-09T01:41:00;99780;;;13.8;100.0
68320;BME280;55168;51.120;17.024;2022-09-09T01:42:00;99780;;;13.7;100.0
68320;BME280;55168;51.120;17.024;2022-09-09T01:43:00;99770;;;13.7;100.0
68320;BME280;55168;51.120;17.024;2022-09-09T01:44:00;99780;;;13.7;100.0
68320;BME280;55168;51.120;17.024;2022-09-09T01:45:00;99770;;;13.8;100.0
68320;BME280;55168;51.120;17.024;2022-09-09T01:46:00;99780;;;13.8;100.0
68320;BME280;55168;51.120;17.024;2022-09-09T01:47:00;99780;;;13.8;100.0
68320;BME280;55168;51.120;17.024;2022-09-09T01:48:00;99780;;;13.8;100.0
68320;BME280;55168;51.120;17.024;2022-09-09T01:49:00;99780;;;13.7;100.0
68320;BME280;55168;51.120;17.024;2022-09-09T01:50:00;99780;;;13.7;100.0
68320;BME280;55168;51.120;17.024;2022-09-09T01:51:00;99780;;;13.8;100.0
68320;BME280;55168;51.120;17.024;2022-09-09T01:52:00;99780;;;13.8;100.0
68320;BME280;55168;51.120;17.024;2022-09-09T01:53:00;99780;;;13.7;100.0
68320;BME280;55168;51.120;17.024;2022-09-09T01:54:00;99780;;;13.7;100.0
68320;BME280;55168;51.120;17.024;2022-09-09T01:55:00;99780;;;13.7;100.0
68320;BME280;55168;51.120;17.024;2022-09-09T01:59:03;99780;;;13.6;100.0
68320;BME280;55168;51.120;17.024;2022-09-09T02:00:04;99790;;;13.6;100.0
68320;BME280;55168;51.120;17.024;2022-09-09T02:01:02;99790;;;13.7;100.0
68320;BME280;55168;51.120;17.024;2022-09-09T02:02:17;99790;;;13.6;100.0
68320;BME280;55168;51.120;17.024;2022-09-09T02:04:00;99790;;;13.6;100.0
68320;BME280;55168;51.120;17.024;2022-09-09T02:05:04;99790;;;13.6;100.0
68320;BME280;55168;51.120;17.024;2022-09-09T02:07:02;99790;;;13.6;100.0
68320;BME280;55168;51.120;17.024;2022-09-09T02:08:01;99790;;;13.6;100.0
68320;BME280;55168;51.120;17.024;2022-09-09T02:09:00;99790;;;13.6;100.0
68320;BME280;55168;51.120;17.024;2022-09-09T02:10:02;99790;;;13.6;100.0
68320;BME280;55168;51.120;17.024;2022-09-09T02:11:05;99790;;;13.6;100.0
68320;BME280;55168;51.120;17.024;2022-09-09T02:12:16;99790;;;13.6;100.0
68320;BME280;55168;51.120;17.024;2022-09-09T02:13:04;99790;;;13.6;100.0
68320;BME280;55168;51.120;17.024;2022-09-09T02:14:00;99790;;;13.6;100.0
68320;BME280;55168;51.120;17.024;2022-09-09T02:15:02;99790;;;13.5;100.0
68320;BME280;55168;51.120;17.024;2022-09-09T02:16:08;99800;;;13.5;100.0
68320;BME280;55168;51.120;17.024;2022-09-09T02:17:01;99800;;;13.5;100.0
68320;BME280;55168;51.120;17.024;2022-09-09T02:18:00;99800;;;13.5;100.0
68320;BME280;55168;51.120;17.024;2022-09-09T02:19:02;99800;;;13.5;100.0
68320;BME280;55168;51.120;17.024;2022-09-09T02:20:03;99800;;;13.5;100.0
68320;BME280;55168;51.120;17.024;2022-09-09T02:21:00;99800;;;13.5;100.0
68320;BME280;55168;51.120;17.024;2022-09-09T02:22:00;99790;;;13.5;100.0
68320;BME280;55168;51.120;17.024;2022-09-09T02:23:00;99800;;;13.5;100.0
68320;BME280;55168;51.120;17.024;2022-09-09T02:24:00;99800;;;13.5;100.0
68320;BME280;55168;51.120;17.024;2022-09-09T02:25:00;99800;;;13.5;100.0
68320;BME280;55168;51.120;17.024;2022-09-09T02:26:00;99800;;;13.5;100.0
68320;BME280;55168;51.120;17.024;2022-09-09T02:27:00;99800;;;13.5;100.0
68320;BME280;55168;51.120;17.024;2022-09-09T02:28:00;99800;;;13.5;100.0
68320;BME280;55168;51.120;17.024;2022-09-09T02:29:01;99790;;;13.5;100.0
68320;BME280;55168;51.120;17.024;2022-09-09T02:30:00;99800;;;13.5;100.0
68320;BME280;55168;51.120;17.024;2022-09-09T02:31:00;99800;;;13.5;100.0
68320;BME280;55168;51.120;17.024;2022-09-09T02:32:01;99800;;;13.5;100.0
68320;BME280;55168;51.120;17.024;2022-09-09T02:33:00;99800;;;13.5;100.0
68320;BME280;55168;51.120;17.024;2022-09-09T02:34:00;99800;;;13.5;100.0
68320;BME280;55168;51.120;17.024;2022-09-09T02:35:02;99800;;;13.5;100.0
68320;BME280;55168;51.120;17.024;2022-09-09T02:36:00;99800;;;13.4;100.0
68320;BME280;55168;51.120;17.024;2022-09-09T02:37:00;99800;;;13.4;100.0
68320;BME280;55168;51.120;17.024;2022-09-09T02:38:01;99800;;;13.4;100.0
68320;BME280;55168;51.120;17.024;2022-09-09T02:39:00;99800;;;13.4;100.0
68320;BME280;55168;51.120;17.024;2022-09-09T02:40:00;99800;;;13.4;100.0
68320;BME280;55168;51.120;17.024;2022-09-09T02:41:00;99800;;;13.4;100.0
68320;BME280;55168;51.120;17.024;2022-09-09T02:42:00;99800;;;13.4;100.0
68320;BME280;55168;51.120;17.024;2022-09-09T02:43:00;99810;;;13.4;100.0
68320;BME280;55168;51.120;17.024;2022-09-09T02:44:00;99800;;;13.4;100.0
68320;BME280;55168;51.120;17.024;2022-09-09T02:45:00;99810;;;13.4;100.0
68320;BME280;55168;51.120;17.024;2022-09-09T02:46:03;99810;;;13.4;100.0
68320;BME280;55168;51.120;17.024;2022-09-09T02:47:04;99810;;;13.3;100.0
68320;BME280;55168;51.120;17.024;2022-09-09T02:50:16;99810;;;13.3;100.0
68320;BME280;55168;51.120;17.024;2022-09-09T02:52:02;99810;;;13.3;100.0
68320;BME280;55168;51.120;17.024;2022-09-09T02:53:16;99810;;;13.3;100.0
68320;BME280;55168;51.120;17.024;2022-09-09T02:55:02;99810;;;13.3;100.0
68320;BME280;55168;51.120;17.024;2022-09-09T02:56:04;99810;;;13.3;100.0
68320;BME280;55168;51.120;17.024;2022-09-09T02:57:04;99810;;;13.3;100.0
68320;BME280;55168;51.120;17.024;2022-09-09T02:58:00;99810;;;13.3;100.0
68320;BME280;55168;51.120;17.024;2022-09-09T02:59:02;99810;;;13.3;100.0
68320;BME280;55168;51.120;17.024;2022-09-09T03:00:00;99810;;;13.4;100.0
68320;BME280;55168;51.120;17.024;2022-09-09T03:01:00;99810;;;13.4;100.0
68320;BME280;55168;51.120;17.024;2022-09-09T03:02:00;99810;;;13.4;100.0
68320;BME280;55168;51.120;17.024;2022-09-09T03:03:00;99810;;;13.4;100.0
68320;BME280;55168;51.120;17.024;2022-09-09T03:04:00;99810;;;13.4;100.0
68320;BME280;55168;51.120;17.024;2022-09-09T03:05:00;99810;;;13.4;100.0
68320;BME280;55168;51.120;17.024;2022-09-09T03:06:00;99810;;;13.4;100.0
68320;BME280;55168;51.120;17.024;2022-09-09T03:07:00;99810;;;13.4;100.0
68320;BME280;55168;51.120;17.024;2022-09-09T03:08:00;99810;;;13.4;100.0
68320;BME280;55168;51.120;17.024;2022-09-09T03:09:00;99820;;;13.5;100.0
68320;BME280;55168;51.120;17.024;2022-09-09T03:10:00;99820;;;13.5;100.0
68320;BME280;55168;51.120;17.024;2022-09-09T03:11:00;99820;;;13.5;100.0
68320;BME280;55168;51.120;17.024;2022-09-09T03:12:00;99820;;;13.5;100.0
68320;BME280;55168;51.120;17.024;2022-09-09T03:13:00;99820;;;13.5;100.0
68320;BME280;55168;51.120;17.024;2022-09-09T03:14:00;99820;;;13.5;100.0
68320;BME280;55168;51.120;17.024;2022-09-09T03:15:00;99820;;;13.5;100.0
68320;BME280;55168;51.120;17.024;2022-09-09T03:16:00;99820;;;13.5;100.0
68320;BME280;55168;51.120;17.024;2022-09-09T03:17:00;99820;;;13.5;100.0
68320;BME280;55168;51.120;17.024;2022-09-09T03:18:00;99820;;;13.5;100.0
68320;BME280;55168;51.120;17.024;2022-09-09T03:19:00;99830;;;13.5;100.0
68320;BME280;55168;51.120;17.024;2022-09-09T03:20:00;99830;;;13.5;100.0
68320;BME280;55168;51.120;17.024;2022-09-09T03:21:00;99830;;;13.4;100.0
68320;BME280;55168;51.120;17.024;2022-09-09T03:22:00;99830;;;13.4;100.0
68320;BME280;55168;51.120;17.024;2022-09-09T03:23:00;99830;;;13.4;100.0
68320;BME280;55168;51.120;17.024;2022-09-09T03:24:00;99830;;;13.4;100.0
68320;BME280;55168;51.120;17.024;2022-09-09T03:25:00;99830;;;13.3;100.0
68320;BME280;55168;51.120;17.024;2022-09-09T03:26:00;99830;;;13.3;100.0
68320;BME280;55168;51.120;17.024;2022-09-09T03:27:00;99830;;;13.3;100.0
68320;BME280;55168;51.120;17.024;2022-09-09T03:28:00;99830;;;13.3;100.0
68320;BME280;55168;51.120;17.024;2022-09-09T03:29:00;99830;;;13.3;100.0
68320;BME280;55168;51.120;17.024;2022-09-09T03:30:00;99830;;;13.3;100.0
68320;BME280;55168;51.120;17.024;2022-09-09T03:31:01;99830;;;13.2;100.0
68320;BME280;55168;51.120;17.024;2022-09-09T03:32:00;99830;;;13.2;100.0
68320;BME280;55168;51.120;17.024;2022-09-09T03:33:00;99830;;;13.2;100.0
68320;BME280;55168;51.120;17.024;2022-09-09T03:34:00;99840;;;13.2;100.0
68320;BME280;55168;51.120;17.024;2022-09-09T03:35:00;99830;;;13.2;100.0
68320;BME280;55168;51.120;17.024;2022-09-09T03:36:00;99830;;;13.3;100.0
68320;BME280;55168;51.120;17.024;2022-09-09T03:37:00;99830;;;13.3;100.0
68320;BME280;55168;51.120;17.024;2022-09-09T03:38:00;99830;;;13.3;100.0
68320;BME280;55168;51.120;17.024;2022-09-09T03:39:00;99840;;;13.2;100.0
68320;BME280;55168;51.120;17.024;2022-09-09T03:40:00;99840;;;13.3;100.0
68320;BME280;55168;51.120;17.024;2022-09-09T03:41:00;99840;;;13.3;100.0
68320;BME280;55168;51.120;17.024;2022-09-09T03:42:00;99840;;;13.3;100.0
68320;BME280;55168;51.120;17.024;2022-09-09T03:43:00;99840;;;13.3;100.0
68320;BME280;55168;51.120;17.024;2022-09-09T03:44:00;99840;;;13.2;100.0
68320;BME280;55168;51.120;17.024;2022-09-09T03:45:00;99840;;;13.2;100.0
68320;BME280;55168;51.120;17.024;2022-09-09T03:46:00;99840;;;13.2;100.0
68320;BME280;55168;51.120;17.024;2022-09-09T03:47:00;99840;;;13.2;100.0
68320;BME280;55168;51.120;17.024;2022-09-09T03:48:00;99840;;;13.2;100.0
68320;BME280;55168;51.120;17.024;2022-09-09T03:49:00;99840;;;13.2;100.0
68320;BME280;55168;51.120;17.024;2022-09-09T03:50:00;99840;;;13.2;100.0
68320;BME280;55168;51.120;17.024;2022-09-09T03:51:00;99840;;;13.2;100.0
68320;BME280;55168;51.120;17.024;2022-09-09T03:52:00;99840;;;13.2;100.0
68320;BME280;55168;51.120;17.024;2022-09-09T03:53:01;99840;;;13.2;100.0
68320;BME280;55168;51.120;17.024;2022-09-09T03:54:00;99840;;;13.1;100.0
68320;BME280;55168;51.120;17.024;2022-09-09T03:55:00;99840;;;13.1;100.0
68320;BME280;55168;51.120;17.024;2022-09-09T03:56:00;99840;;;13.1;100.0
68320;BME280;55168;51.120;17.024;2022-09-09T03:57:00;99850;;;13.1;100.0
68320;BME280;55168;51.120;17.024;2022-09-09T03:58:00;99840;;;13.1;100.0
68320;BME280;55168;51.120;17.024;2022-09-09T03:59:00;99840;;;13.1;100.0
68320;BME280;55168;51.120;17.024;2022-09-09T04:00:01;99840;;;13.1;100.0
68320;BME280;55168;51.120;17.024;2022-09-09T04:01:01;99840;;;13.2;100.0
68320;BME280;55168;51.120;17.024;2022-09-09T04:02:00;99840;;;13.2;100.0
68320;BME280;55168;51.120;17.024;2022-09-09T04:03:00;99850;;;13.2;100.0
68320;BME280;55168;51.120;17.024;2022-09-09T04:04:00;99850;;;13.2;100.0
68320;BME280;55168;51.120;17.024;2022-09-09T04:05:00;99850;;;13.2;100.0
68320;BME280;55168;51.120;17.024;2022-09-09T04:06:00;99850;;;13.2;100.0
68320;BME280;55168;51.120;17.024;2022-09-09T04:07:00;99850;;;13.1;100.0
68320;BME280;55168;51.120;17.024;2022-09-09T04:08:00;99850;;;13.1;100.0
68320;BME280;55168;51.120;17.024;2022-09-09T04:09:00;99850;;;13.1;100.0
68320;BME280;55168;51.120;17.024;2022-09-09T04:10:00;99850;;;13.1;100.0
68320;BME280;55168;51.120;17.024;2022-09-09T04:11:00;99850;;;13.1;100.0
68320;BME280;55168;51.120;17.024;2022-09-09T04:12:00;99840;;;13.1;100.0
68320;BME280;55168;51.120;17.024;2022-09-09T04:13:00;99850;;;13.1;100.0
68320;BME280;55168;51.120;17.024;2022-09-09T04:14:00;99850;;;13.1;100.0
68320;BME280;55168;51.120;17.024;2022-09-09T04:15:00;99850;;;13.1;100.0
68320;BME280;55168;51.120;17.024;2022-09-09T04:16:00;99850;;;13.1;100.0
68320;BME280;55168;51.120;17.024;2022-09-09T04:17:00;99850;;;13.1;100.0
68320;BME280;55168;51.120;17.024;2022-09-09T04:18:00;99850;;;13.1;100.0
68320;BME280;55168;51.120;17.024;2022-09-09T04:19:00;99850;;;13.1;100.0
68320;BME280;55168;51.120;17.024;2022-09-09T04:20:00;99850;;;13.1;100.0
68320;BME280;55168;51.120;17.024;2022-09-09T04:21:00;99850;;;13.1;100.0
68320;BME280;55168;51.120;17.024;2022-09-09T04:22:00;99850;;;13.1;100.0
68320;BME280;55168;51.120;17.024;2022-09-09T04:23:00;99860;;;13.1;100.0
68320;BME280;55168;51.120;17.024;2022-09-09T04:24:00;99850;;;13.1;100.0
68320;BME280;55168;51.120;17.024;2022-09-09T04:25:00;99860;;;13.2;100.0
68320;BME280;55168;51.120;17.024;2022-09-09T04:26:00;99860;;;13.2;100.0
68320;BME280;55168;51.120;17.024;2022-09-09T04:27:00;99860;;;13.2;100.0
68320;BME280;55168;51.120;17.024;2022-09-09T04:28:00;99860;;;13.2;100.0
68320;BME280;55168;51.120;17.024;2022-09-09T04:29:00;99860;;;13.2;100.0
68320;BME280;55168;51.120;17.024;2022-09-09T04:30:00;99860;;;13.2;100.0
68320;BME280;55168;51.120;17.024;2022-09-09T04:31:08;99860;;;13.2;100.0
68320;BME280;55168;51.120;17.024;2022-09-09T04:32:00;99860;;;13.2;100.0
68320;BME280;55168;51.120;17.024;2022-09-09T04:33:00;99860;;;13.2;100.0
68320;BME280;55168;51.120;17.024;2022-09-09T04:34:00;99860;;;13.1;100.0
68320;BME280;55168;51.120;17.024;2022-09-09T04:35:00;99870;;;13.2;100.0
68320;BME280;55168;51.120;17.024;2022-09-09T04:36:00;99870;;;13.3;100.0
68320;BME280;55168;51.120;17.024;2022-09-09T04:37:00;99870;;;13.4;100.0
68320;BME280;55168;51.120;17.024;2022-09-09T04:38:00;99860;;;13.4;100.0
68320;BME280;55168;51.120;17.024;2022-09-09T04:39:00;99860;;;13.5;100.0
68320;BME280;55168;51.120;17.024;2022-09-09T04:40:00;99860;;;13.6;100.0
68320;BME280;55168;51.120;17.024;2022-09-09T04:41:00;99860;;;13.6;100.0
68320;BME280;55168;51.120;17.024;2022-09-09T04:42:00;99860;;;13.7;100.0
68320;BME280;55168;51.120;17.024;2022-09-09T04:43:00;99860;;;13.8;100.0
68320;BME280;55168;51.120;17.024;2022-09-09T04:44:00;99860;;;13.9;100.0
68320;BME280;55168;51.120;17.024;2022-09-09T04:45:00;99860;;;13.9;100.0
68320;BME280;55168;51.120;17.024;2022-09-09T04:46:00;99860;;;14.0;100.0
68320;BME280;55168;51.120;17.024;2022-09-09T04:47:00;99870;;;14.1;100.0
68320;BME280;55168;51.120;17.024;2022-09-09T04:48:00;99860;;;14.1;100.0
68320;BME280;55168;51.120;17.024;2022-09-09T04:49:00;99860;;;14.1;100.0
68320;BME280;55168;51.120;17.024;2022-09-09T04:50:00;99860;;;14.1;100.0
68320;BME280;55168;51.120;17.024;2022-09-09T04:51:01;99860;;;14.1;100.0
68320;BME280;55168;51.120;17.024;2022-09-09T04:52:00;99860;;;14.0;100.0
68320;BME280;55168;51.120;17.024;2022-09-09T04:53:00;99860;;;14.1;100.0
68320;BME280;55168;51.120;17.024;2022-09-09T04:54:00;99860;;;14.2;100.0
68320;BME280;55168;51.120;17.024;2022-09-09T04:55:00;99860;;;14.4;100.0
68320;BME280;55168;51.120;17.024;2022-09-09T04:56:02;99860;;;14.5;100.0
68320;BME280;55168;51.120;17.024;2022-09-09T04:57:00;99860;;;14.7;100.0
68320;BME280;55168;51.120;17.024;2022-09-09T04:58:08;99860;;;14.9;100.0
68320;BME280;55168;51.120;17.024;2022-09-09T04:59:00;99860;;;14.9;100.0
68320;BME280;55168;51.120;17.024;2022-09-09T05:00:00;99860;;;15.0;100.0
68320;BME280;55168;51.120;17.024;2022-09-09T05:01:04;99860;;;15.1;100.0
68320;BME280;55168;51.120;17.024;2022-09-09T05:02:00;99860;;;15.2;100.0
68320;BME280;55168;51.120;17.024;2022-09-09T05:03:02;99860;;;15.3;100.0
68320;BME280;55168;51.120;17.024;2022-09-09T05:04:00;99860;;;15.4;100.0
68320;BME280;55168;51.120;17.024;2022-09-09T05:05:00;99860;;;15.5;100.0
68320;BME280;55168;51.120;17.024;2022-09-09T05:06:08;99870;;;15.6;100.0
68320;BME280;55168;51.120;17.024;2022-09-09T05:07:00;99870;;;15.6;100.0
68320;BME280;55168;51.120;17.024;2022-09-09T05:08:00;99870;;;15.4;100.0
68320;BME280;55168;51.120;17.024;2022-09-09T05:09:00;99860;;;15.4;100.0
68320;BME280;55168;51.120;17.024;2022-09-09T05:10:00;99870;;;15.6;100.0
68320;BME280;55168;51.120;17.024;2022-09-09T05:11:00;99870;;;15.6;100.0
68320;BME280;55168;51.120;17.024;2022-09-09T05:12:00;99870;;;15.7;100.0
68320;BME280;55168;51.120;17.024;2022-09-09T05:13:00;99870;;;15.9;100.0
68320;BME280;55168;51.120;17.024;2022-09-09T05:14:00;99870;;;16.1;100.0
68320;BME280;55168;51.120;17.024;2022-09-09T05:15:00;99880;;;16.1;100.0
68320;BME280;55168;51.120;17.024;2022-09-09T05:16:00;99880;;;16.1;100.0
68320;BME280;55168;51.120;17.024;2022-09-09T05:17:00;99880;;;16.3;100.0
68320;BME280;55168;51.120;17.024;2022-09-09T05:18:00;99880;;;16.2;100.0
68320;BME280;55168;51.120;17.024;2022-09-09T05:19:00;99880;;;15.9;100.0
68320;BME280;55168;51.120;17.024;2022-09-09T05:20:00;99880;;;16.0;100.0
68320;BME280;55168;51.120;17.024;2022-09-09T05:21:00;99890;;;16.0;100.0
68320;BME280;55168;51.120;17.024;2022-09-09T05:22:00;99880;;;16.4;100.0
68320;BME280;55168;51.120;17.024;2022-09-09T05:23:00;99890;;;16.5;100.0
68320;BME280;55168;51.120;17.024;2022-09-09T05:24:00;99890;;;16.5;100.0
68320;BME280;55168;51.120;17.024;2022-09-09T05:25:00;99890;;;16.7;100.0
68320;BME280;55168;51.120;17.024;2022-09-09T05:26:00;99890;;;17.0;100.0
68320;BME280;55168;51.120;17.024;2022-09-09T05:27:00;99890;;;17.1;100.0
68320;BME280;55168;51.120;17.024;2022-09-09T05:28:00;99890;;;17.2;100.0
68320;BME280;55168;51.120;17.024;2022-09-09T05:29:00;99890;;;17.2;100.0
68320;BME280;55168;51.120;17.024;2022-09-09T05:30:00;99890;;;17.3;100.0
68320;BME280;55168;51.120;17.024;2022-09-09T05:31:00;99890;;;17.4;100.0
68320;BME280;55168;51.120;17.024;2022-09-09T05:32:00;99890;;;17.5;100.0
68320;BME280;55168;51.120;17.024;2022-09-09T05:33:00;99900;;;17.4;100.0
68320;BME280;55168;51.120;17.024;2022-09-09T05:34:00;99900;;;17.5;100.0
68320;BME280;55168;51.120;17.024;2022-09-09T05:35:00;99900;;;17.5;100.0
68320;BME280;55168;51.120;17.024;2022-09-09T05:36:04;99900;;;17.4;100.0
68320;BME280;55168;51.120;17.024;2022-09-09T05:37:00;99900;;;17.6;100.0
68320;BME280;55168;51.120;17.024;2022-09-09T05:38:00;99890;;;17.6;100.0
68320;BME280;55168;51.120;17.024;2022-09-09T05:39:00;99900;;;17.9;100.0
68320;BME280;55168;51.120;17.024;2022-09-09T05:40:00;99900;;;18.2;100.0
68320;BME280;55168;51.120;17.024;2022-09-09T05:41:00;99890;;;18.1;100.0
68320;BME280;55168;51.120;17.024;2022-09-09T05:42:00;99900;;;18.3;100.0
68320;BME280;55168;51.120;17.024;2022-09-09T05:43:01;99900;;;18.5;100.0
68320;BME280;55168;51.120;17.024;2022-09-09T05:44:00;99900;;;18.6;100.0
68320;BME280;55168;51.120;17.024;2022-09-09T05:45:00;99900;;;18.6;98.1
68320;BME280;55168;51.120;17.024;2022-09-09T05:46:01;99900;;;18.6;94.5
68320;BME280;55168;51.120;17.024;2022-09-09T05:47:00;99900;;;18.9;96.9
68320;BME280;55168;51.120;17.024;2022-09-09T05:48:00;99890;;;19.2;95.4
68320;BME280;55168;51.120;17.024;2022-09-09T05:49:00;99900;;;19.4;94.0
68320;BME280;55168;51.120;17.024;2022-09-09T05:50:00;99900;;;19.6;92.1
68320;BME280;55168;51.120;17.024;2022-09-09T05:51:00;99900;;;19.9;90.6
68320;BME280;55168;51.120;17.024;2022-09-09T05:52:00;99890;;;20.2;90.7
68320;BME280;55168;51.120;17.024;2022-09-09T05:53:00;99890;;;20.1;87.8
68320;BME280;55168;51.120;17.024;2022-09-09T05:54:00;99900;;;20.2;87.9
68320;BME280;55168;51.120;17.024;2022-09-09T05:55:00;99890;;;20.1;84.7
68320;BME280;55168;51.120;17.024;2022-09-09T05:56:00;99890;;;20.2;85.4
68320;BME280;55168;51.120;17.024;2022-09-09T05:57:00;99890;;;20.2;84.5
68320;BME280;55168;51.120;17.024;2022-09-09T05:58:00;99890;;;20.1;82.3
68320;BME280;55168;51.120;17.024;2022-09-09T05:59:00;99890;;;20.3;85.0
68320;BME280;55168;51.120;17.024;2022-09-09T06:00:00;99890;;;20.6;83.4
68320;BME280;55168;51.120;17.024;2022-09-09T06:01:00;99890;;;20.8;81.5
68320;BME280;55168;51.120;17.024;2022-09-09T06:02:00;99890;;;20.8;81.2
68320;BME280;55168;51.120;17.024;2022-09-09T06:03:00;99890;;;20.6;81.3
68320;BME280;55168;51.120;17.024;2022-09-09T06:04:00;99890;;;20.7;81.4
68320;BME280;55168;51.120;17.024;2022-09-09T06:05:00;99890;;;20.9;79.9